Time;durP1;ratioP1;P1;durP2;ratioP2;P2;SDS_P1;SDS_P2;PMS_P1;PMS_P2;Temp;Humidity;BMP_temperature;BMP_pressure;BME280_temperature;BME280_humidity;BME280_pressure;Samples;Min_cycle;Max_cycle;Signal;HPM_P1;HPM_P2
2021/09/14 00:01:42;;;;;;;6.00;5.28;;;16.30;99.90;;;;;;5053531;28;20029;-66
2021/09/14 00:04:08;;;;;;;6.97;5.88;;;16.30;99.90;;;;;;5053873;28;20053;-66
2021/09/14 00:06:38;;;;;;;6.97;5.90;;;16.30;99.90;;;;;;5052776;28;20459;-66
2021/09/14 00:09:04;;;;;;;7.85;5.65;;;16.30;99.90;;;;;;5053604;28;20386;-66
2021/09/14 00:11:31;;;;;;;6.82;6.13;;;16.30;99.90;;;;;;5052761;28;20032;-66
2021/09/14 00:13:56;;;;;;;6.75;5.25;;;16.30;99.90;;;;;;5053991;28;20474;-66
2021/09/14 00:16:22;;;;;;;6.05;5.28;;;16.30;99.90;;;;;;5052367;28;20100;-66
2021/09/14 00:18:47;;;;;;;7.53;6.32;;;16.30;99.90;;;;;;5053307;28;20021;-66
2021/09/14 00:21:13;;;;;;;5.97;5.38;;;16.30;99.90;;;;;;5052763;28;20147;-67
2021/09/14 00:23:39;;;;;;;6.45;5.78;;;16.30;99.90;;;;;;5053306;28;20439;-66
2021/09/14 00:26:04;;;;;;;7.68;5.70;;;16.30;99.90;;;;;;5051873;28;20025;-66
2021/09/14 00:28:30;;;;;;;6.10;5.50;;;16.30;99.90;;;;;;5052369;28;20033;-66
2021/09/14 00:30:56;;;;;;;6.25;5.68;;;16.30;99.90;;;;;;5052804;28;20017;-66
2021/09/14 00:33:21;;;;;;;5.60;5.10;;;16.20;99.90;;;;;;5052590;28;20043;-66
2021/09/14 00:35:47;;;;;;;7.82;6.43;;;16.20;99.90;;;;;;5053235;28;20108;-66
2021/09/14 00:38:12;;;;;;;6.15;5.65;;;16.20;99.90;;;;;;5052325;28;20029;-66
2021/09/14 00:40:38;;;;;;;6.15;5.55;;;16.20;99.90;;;;;;5052606;28;20082;-66
2021/09/14 00:43:04;;;;;;;6.32;5.40;;;16.20;99.90;;;;;;5052140;28;20053;-67
2021/09/14 00:45:30;;;;;;;6.45;5.85;;;16.20;99.90;;;;;;5052339;28;20344;-67
2021/09/14 00:47:55;;;;;;;6.15;5.55;;;16.20;99.90;;;;;;5051742;28;20455;-66
2021/09/14 00:50:21;;;;;;;6.80;5.10;;;16.20;99.90;;;;;;5051395;28;20080;-65
2021/09/14 00:52:47;;;;;;;5.45;4.95;;;16.20;99.90;;;;;;5052239;28;20040;-65
2021/09/14 00:55:12;;;;;;;5.80;5.22;;;16.20;99.90;;;;;;5052018;28;20025;-65
2021/09/14 00:57:38;;;;;;;6.22;5.63;;;16.20;99.90;;;;;;5052385;28;20081;-65
2021/09/14 01:00:05;;;;;;;7.32;5.65;;;16.10;99.90;;;;;;5052702;28;20029;-65
2021/09/14 01:02:31;;;;;;;5.57;5.07;;;16.10;99.90;;;;;;5051676;28;20375;-65
2021/09/14 01:04:57;;;;;;;6.25;5.68;;;16.10;99.90;;;;;;5052382;28;20036;-66
2021/09/14 01:07:23;;;;;;;6.10;5.50;;;16.10;99.90;;;;;;5050604;28;20028;-67
2021/09/14 01:09:49;;;;;;;6.25;5.72;;;16.10;99.90;;;;;;5052449;28;20051;-65
2021/09/14 01:12:18;;;;;;;6.20;5.60;;;16.00;99.90;;;;;;5051727;28;20029;-65
2021/09/14 01:14:55;;;;;;;5.75;5.25;;;16.00;99.90;;;;;;5052666;28;20017;-66
2021/09/14 01:17:20;;;;;;;7.50;5.72;;;15.90;99.90;;;;;;5051581;28;20029;-66
2021/09/14 01:19:47;;;;;;;6.50;5.70;;;15.90;99.90;;;;;;5052391;28;20051;-65
2021/09/14 01:22:14;;;;;;;6.40;5.75;;;15.90;99.90;;;;;;5051600;28;20119;-66
2021/09/14 01:24:40;;;;;;;5.72;5.15;;;15.80;99.90;;;;;;5051997;28;20104;-66
2021/09/14 01:27:05;;;;;;;7.50;5.78;;;15.80;99.90;;;;;;5052255;28;20104;-66
2021/09/14 01:32:15;;;;;;;7.47;6.03;;;15.80;99.90;;;;;;5050831;28;20036;-66
2021/09/14 01:34:41;;;;;;;7.03;6.32;;;15.70;99.90;;;;;;5051991;28;20037;-65
2021/09/14 01:37:07;;;;;;;9.77;6.78;;;15.70;99.90;;;;;;5051667;28;20025;-66
2021/09/14 01:39:32;;;;;;;6.53;5.93;;;15.70;99.90;;;;;;5051132;28;20635;-66
2021/09/14 01:41:58;;;;;;;6.80;5.70;;;15.70;99.90;;;;;;5051255;28;20478;-65
2021/09/14 01:44:24;;;;;;;7.22;6.13;;;15.70;99.90;;;;;;5051092;28;20021;-66
2021/09/14 01:46:51;;;;;;;7.53;6.28;;;15.70;99.90;;;;;;5051850;28;20029;-66
2021/09/14 01:49:17;;;;;;;7.28;6.18;;;15.70;99.90;;;;;;5050293;28;20025;-65
2021/09/14 01:51:43;;;;;;;6.32;5.72;;;15.70;99.90;;;;;;5051720;28;20033;-65
2021/09/14 01:54:10;;;;;;;7.97;5.75;;;15.70;99.90;;;;;;5051377;28;20025;-65
2021/09/14 01:56:36;;;;;;;7.07;6.10;;;15.60;99.90;;;;;;5051414;28;20022;-65
2021/09/14 01:59:02;;;;;;;7.40;5.97;;;15.60;99.90;;;;;;5052956;28;20029;-65
2021/09/14 02:01:40;;;;;;;7.07;6.38;;;15.60;99.90;;;;;;5054911;28;20036;-66
2021/09/14 02:44:21;;;;;;;6.75;6.15;;;15.20;99.90;;;;;;5054981;28;20037;-65
2021/09/14 03:00:46;;;;;;;6.80;6.20;;;15.20;99.90;;;;;;5072531;28;20033;-65
2021/09/14 03:03:12;;;;;;;6.80;6.05;;;15.20;99.90;;;;;;5058297;28;20053;-66
2021/09/14 03:05:37;;;;;;;9.68;6.93;;;15.10;99.90;;;;;;5054558;28;20029;-65
2021/09/14 03:08:03;;;;;;;7.40;6.47;;;15.20;99.90;;;;;;5054644;28;20051;-66
2021/09/14 03:10:29;;;;;;;7.82;7.05;;;15.20;99.90;;;;;;5052686;28;20516;-65
2021/09/14 03:12:54;;;;;;;6.65;5.93;;;15.20;99.90;;;;;;5054381;28;20033;-65
2021/09/14 03:15:20;;;;;;;8.07;6.88;;;15.30;99.90;;;;;;5053910;28;20021;-65
2021/09/14 03:17:46;;;;;;;6.60;5.97;;;15.30;99.90;;;;;;5054415;28;20567;-65
2021/09/14 03:20:12;;;;;;;6.60;6.00;;;15.30;99.90;;;;;;5054448;28;20025;-65
2021/09/14 03:22:37;;;;;;;6.90;6.20;;;15.40;99.90;;;;;;5053528;28;20112;-66
2021/09/14 03:25:03;;;;;;;7.45;6.75;;;15.30;99.90;;;;;;5054510;28;20104;-66
2021/09/14 03:27:29;;;;;;;6.63;6.00;;;15.30;99.90;;;;;;5052058;28;20033;-65
2021/09/14 03:29:55;;;;;;;7.70;6.03;;;15.30;99.90;;;;;;5053274;28;20425;-65
2021/09/14 03:32:20;;;;;;;10.00;6.63;;;15.30;99.90;;;;;;5053195;28;20073;-65
2021/09/14 03:34:46;;;;;;;7.65;6.90;;;15.40;99.90;;;;;;5053478;28;20028;-66
2021/09/14 03:37:11;;;;;;;8.05;6.38;;;15.40;99.90;;;;;;5054276;28;20495;-66
2021/09/14 03:39:37;;;;;;;6.75;6.13;;;15.40;99.90;;;;;;5053539;28;20029;-66
2021/09/14 03:42:03;;;;;;;10.93;6.40;;;15.40;99.90;;;;;;5054204;28;20402;-65
2021/09/14 03:44:28;;;;;;;8.35;6.22;;;15.40;99.90;;;;;;5053543;28;20024;-66
2021/09/14 03:46:54;;;;;;;7.88;6.57;;;15.40;99.90;;;;;;5053781;28;20355;-66
2021/09/14 03:49:20;;;;;;;6.60;6.00;;;15.40;99.90;;;;;;5053225;28;20070;-65
2021/09/14 03:51:45;;;;;;;6.95;6.25;;;15.40;99.90;;;;;;5054187;28;20025;-65
2021/09/14 03:54:11;;;;;;;7.90;6.45;;;15.30;99.90;;;;;;5052667;28;20154;-66
2021/09/14 03:56:36;;;;;;;7.75;6.78;;;15.40;99.90;;;;;;5053395;28;20082;-65
2021/09/14 03:59:02;;;;;;;10.68;6.80;;;15.30;99.90;;;;;;5051891;28;20397;-65
2021/09/14 04:01:28;;;;;;;6.88;6.07;;;15.30;99.90;;;;;;5052719;28;20036;-65
2021/09/14 04:04:01;;;;;;;8.52;6.90;;;15.30;99.90;;;;;;5052986;28;20033;-65
2021/09/14 04:06:41;;;;;;;8.73;6.75;;;15.30;99.90;;;;;;5052630;28;20025;-66
2021/09/14 04:09:07;;;;;;;8.07;6.57;;;15.30;99.90;;;;;;5053767;28;20071;-66
2021/09/14 04:11:33;;;;;;;9.75;6.90;;;15.20;99.90;;;;;;5052854;28;20029;-66
2021/09/14 04:13:58;;;;;;;7.90;6.43;;;15.20;99.90;;;;;;5053390;28;20025;-66
2021/09/14 04:16:24;;;;;;;6.72;6.07;;;15.20;99.90;;;;;;5052496;28;20033;-66
2021/09/14 04:18:50;;;;;;;6.43;5.82;;;15.20;99.90;;;;;;5053336;28;20107;-65
2021/09/14 04:21:16;;;;;;;6.93;6.22;;;15.10;99.90;;;;;;5052957;28;20025;-65
2021/09/14 04:23:42;;;;;;;7.10;6.43;;;15.10;99.90;;;;;;5052242;28;20032;-66
2021/09/14 04:26:08;;;;;;;7.50;6.80;;;15.00;99.90;;;;;;5053186;28;20029;-66
2021/09/14 04:28:33;;;;;;;8.13;7.30;;;15.00;99.90;;;;;;5052314;28;20031;-65
2021/09/14 04:30:59;;;;;;;8.40;6.93;;;15.00;99.90;;;;;;5052911;28;20351;-66
2021/09/14 04:33:25;;;;;;;7.97;7.18;;;15.00;99.90;;;;;;5052047;28;20561;-66
2021/09/14 04:35:51;;;;;;;9.35;7.15;;;14.90;99.90;;;;;;5053138;28;20032;-66
2021/09/14 04:38:17;;;;;;;7.88;7.07;;;15.00;99.90;;;;;;5052781;28;20162;-65
2021/09/14 04:40:42;;;;;;;7.93;6.97;;;14.90;99.90;;;;;;5051576;28;20130;-66
2021/09/14 04:43:08;;;;;;;9.05;6.85;;;14.90;99.90;;;;;;5051998;28;20486;-66
2021/09/14 04:45:34;;;;;;;7.95;7.18;;;14.90;99.90;;;;;;5051726;28;20560;-66
2021/09/14 04:47:59;;;;;;;7.53;6.40;;;14.90;99.90;;;;;;5052607;28;20029;-66
2021/09/14 04:50:25;;;;;;;11.88;7.90;;;14.90;99.90;;;;;;5050547;28;20028;-65
2021/09/14 04:52:51;;;;;;;11.02;7.90;;;14.90;99.90;;;;;;5052598;28;20055;-65
2021/09/14 04:55:16;;;;;;;8.30;7.50;;;14.80;99.90;;;;;;5052828;28;20120;-67
2021/09/14 04:57:42;;;;;;;8.73;7.45;;;14.90;99.90;;;;;;5052492;28;20604;-66
2021/09/14 05:00:11;;;;;;;9.23;8.13;;;14.90;99.90;;;;;;5052782;28;20053;-66
2021/09/14 05:02:37;;;;;;;8.48;7.55;;;14.90;99.90;;;;;;5052144;28;20033;-67
2021/09/14 05:05:03;;;;;;;8.50;7.25;;;14.80;99.90;;;;;;5052580;28;20039;-66
2021/09/14 05:07:28;;;;;;;7.68;6.90;;;14.90;99.90;;;;;;5051790;28;20029;-66
2021/09/14 05:09:54;;;;;;;10.60;7.55;;;14.90;99.90;;;;;;5052598;28;20021;-66
2021/09/14 05:12:20;;;;;;;9.55;7.80;;;14.90;99.90;;;;;;5051936;28;20037;-66
2021/09/14 05:14:45;;;;;;;10.02;7.15;;;14.90;99.90;;;;;;5052464;28;20463;-66
2021/09/14 05:17:11;;;;;;;13.18;8.00;;;14.90;99.90;;;;;;5052554;28;20032;-66
2021/09/14 05:19:38;;;;;;;8.93;7.47;;;14.90;99.90;;;;;;5051742;28;20032;-66
2021/09/14 05:22:04;;;;;;;12.13;8.30;;;15.00;99.90;;;;;;5052342;28;20064;-66
2021/09/14 05:24:32;;;;;;;8.00;7.20;;;15.00;99.90;;;;;;5051479;28;20086;-67
2021/09/14 05:26:58;;;;;;;7.50;6.78;;;15.00;99.90;;;;;;5051839;28;20029;-66
2021/09/14 05:29:24;;;;;;;11.27;7.75;;;15.10;99.90;;;;;;5050444;28;20067;-66
2021/09/14 05:31:52;;;;;;;7.75;6.70;;;15.10;99.90;;;;;;5052302;28;20474;-66
2021/09/14 05:34:19;;;;;;;7.38;6.68;;;15.10;99.90;;;;;;5051878;28;20040;-67
2021/09/14 05:36:45;;;;;;;7.05;6.43;;;15.10;99.90;;;;;;5052304;28;20029;-67
2021/09/14 05:39:11;;;;;;;8.23;7.18;;;15.10;99.90;;;;;;5051961;28;20486;-66
2021/09/14 05:41:37;;;;;;;8.52;7.30;;;15.10;99.90;;;;;;5051522;28;20053;-66
2021/09/14 05:44:03;;;;;;;9.25;7.85;;;15.10;99.90;;;;;;5052272;28;20032;-67
2021/09/14 05:46:28;;;;;;;9.93;7.43;;;15.10;99.90;;;;;;5050916;28;20029;-66
2021/09/14 05:48:54;;;;;;;8.07;7.28;;;15.20;99.90;;;;;;5051358;28;20473;-66
2021/09/14 05:51:20;;;;;;;8.55;7.63;;;15.30;99.90;;;;;;5053325;28;20052;-73
2021/09/14 05:53:46;;;;;;;7.78;6.97;;;15.30;99.90;;;;;;5054155;28;20036;-74
2021/09/14 05:56:12;;;;;;;7.97;7.15;;;15.40;99.90;;;;;;5051712;28;20032;-73
2021/09/14 05:58:37;;;;;;;8.25;7.45;;;15.40;99.90;;;;;;5051585;28;20038;-71
2021/09/14 06:01:03;;;;;;;7.90;7.10;;;15.50;99.90;;;;;;5052173;28;20025;-71
2021/09/14 06:03:30;;;;;;;8.38;6.55;;;15.60;99.90;;;;;;5050561;28;20029;-71
2021/09/14 06:05:56;;;;;;;8.13;7.32;;;15.60;99.90;;;;;;5052055;28;20031;-70
2021/09/14 06:08:22;;;;;;;9.32;8.13;;;15.70;99.90;;;;;;5051198;28;20079;-70
2021/09/14 06:10:48;;;;;;;10.77;9.10;;;15.80;99.90;;;;;;5050620;28;20033;-71
2021/09/14 06:13:14;;;;;;;11.32;8.65;;;15.90;99.90;;;;;;5051663;28;20033;-71
2021/09/14 06:15:40;;;;;;;9.07;8.18;;;16.00;99.90;;;;;;5050668;28;20378;-70
2021/09/14 06:18:06;;;;;;;10.95;7.80;;;16.10;99.90;;;;;;5051408;28;20033;-71
2021/09/14 06:20:32;;;;;;;9.98;8.90;;;16.20;99.90;;;;;;5050732;28;20033;-71
2021/09/14 06:22:58;;;;;;;9.23;8.32;;;16.30;99.90;;;;;;5051212;28;20078;-72
2021/09/14 06:25:24;;;;;;;10.93;7.75;;;16.40;99.90;;;;;;5049293;28;20116;-70
2021/09/14 06:27:49;;;;;;;9.73;7.55;;;16.50;99.90;;;;;;5050999;28;20025;-71
2021/09/14 06:30:15;;;;;;;9.55;7.85;;;16.60;99.90;;;;;;5051783;28;20024;-71
2021/09/14 06:32:41;;;;;;;9.85;8.85;;;16.70;99.90;;;;;;5050971;28;20056;-71
2021/09/14 06:35:07;;;;;;;10.52;8.25;;;16.90;99.90;;;;;;5051412;28;20048;-72
2021/09/14 06:37:33;;;;;;;12.50;9.02;;;17.00;99.90;;;;;;5050701;28;20021;-71
2021/09/14 06:39:59;;;;;;;8.13;7.15;;;17.10;99.90;;;;;;5051058;28;20040;-71
2021/09/14 06:42:25;;;;;;;8.38;7.50;;;17.20;99.90;;;;;;5049308;28;20124;-71
2021/09/14 06:44:51;;;;;;;8.98;7.38;;;17.30;99.90;;;;;;5052524;28;20029;-71
2021/09/14 06:47:17;;;;;;;7.93;7.03;;;17.40;99.90;;;;;;5054170;28;20071;-71
2021/09/14 06:49:43;;;;;;;8.60;7.70;;;17.50;99.90;;;;;;5056202;28;20040;-74
2021/09/14 06:52:08;;;;;;;8.30;7.35;;;17.60;99.90;;;;;;5074974;28;20043;-73
2021/09/14 06:54:34;;;;;;;7.68;6.88;;;17.80;99.90;;;;;;5070135;28;20033;-81
2021/09/14 06:56:59;;;;;;;8.35;7.50;;;17.90;99.90;;;;;;5061024;28;20437;-79
2021/09/14 06:59:25;;;;;;;13.52;7.63;;;18.00;99.90;;;;;;5057173;28;20025;-76
2021/09/14 07:01:51;;;;;;;9.52;8.07;;;18.10;99.90;;;;;;5055242;28;20025;-76
2021/09/14 07:04:16;;;;;;;9.20;7.93;;;18.20;99.90;;;;;;5053908;28;20094;-76
2021/09/14 07:06:42;;;;;;;15.30;8.50;;;18.40;99.90;;;;;;5054939;28;20378;-83
2021/09/14 07:09:08;;;;;;;9.63;8.00;;;18.50;99.90;;;;;;5053568;28;20425;-75
2021/09/14 07:11:34;;;;;;;11.38;8.15;;;18.60;99.90;;;;;;5073848;28;20048;-75
2021/09/14 07:14:01;;;;;;;7.72;6.63;;;18.80;99.90;;;;;;5054739;28;20467;-75
2021/09/14 07:16:27;;;;;;;7.40;6.35;;;18.80;99.90;;;;;;5053983;28;20132;-75
2021/09/14 07:18:54;;;;;;;9.57;6.65;;;18.90;99.90;;;;;;5054139;28;20534;-76
2021/09/14 07:21:19;;;;;;;12.35;7.57;;;19.00;99.90;;;;;;5054572;28;20029;-76
2021/09/14 07:23:45;;;;;;;10.40;7.63;;;19.00;99.90;;;;;;5065062;28;20128;-75
2021/09/14 07:26:11;;;;;;;8.82;6.95;;;19.10;99.90;;;;;;5074215;28;20060;-75
2021/09/14 07:28:36;;;;;;;9.88;7.78;;;19.20;99.90;;;;;;5073968;28;20025;-76
2021/09/14 07:31:03;;;;;;;9.60;6.40;;;19.30;99.90;;;;;;5074663;28;20032;-75
2021/09/14 07:33:28;;;;;;;10.23;6.05;;;19.40;99.90;;;;;;5073890;28;20025;-75
2021/09/14 07:35:54;;;;;;;8.80;6.18;;;19.50;99.90;;;;;;5074559;28;20031;-75
2021/09/14 07:38:20;;;;;;;11.27;6.18;;;19.60;99.90;;;;;;5074417;28;20024;-71
2021/09/14 07:40:45;;;;;;;9.70;5.80;;;19.70;99.90;;;;;;5073612;28;20103;-71
2021/09/14 07:43:11;;;;;;;9.40;6.25;;;19.80;99.90;;;;;;5073894;28;20044;-71
2021/09/14 07:45:37;;;;;;;7.13;5.78;;;19.80;99.90;;;;;;5073444;28;20422;-70
2021/09/14 07:48:02;;;;;;;9.35;6.35;;;20.00;99.90;;;;;;5074015;28;20028;-70
2021/09/14 07:50:28;;;;;;;9.55;5.78;;;20.00;99.90;;;;;;5073394;28;20029;-70
2021/09/14 07:52:54;;;;;;;8.55;5.95;;;20.10;99.90;;;;;;5074150;28;20028;-70
2021/09/14 07:55:19;;;;;;;8.32;5.95;;;20.20;99.90;;;;;;5073809;28;20482;-70
2021/09/14 07:57:45;;;;;;;7.70;5.70;;;20.30;99.90;;;;;;5052557;28;20028;-70
2021/09/14 08:00:11;;;;;;;9.70;6.75;;;20.40;99.90;;;;;;5053506;28;20029;-70
2021/09/14 08:02:37;;;;;;;10.98;6.90;;;20.60;99.90;;;;;;5053099;28;20028;-70
2021/09/14 08:05:04;;;;;;;10.85;5.93;;;20.60;99.90;;;;;;5057662;28;20039;-71
2021/09/14 08:07:29;;;;;;;11.25;6.30;;;20.80;99.90;;;;;;5053481;28;20078;-70
2021/09/14 08:09:55;;;;;;;7.63;5.82;;;20.90;99.90;;;;;;5053548;28;20029;-71
2021/09/14 08:12:21;;;;;;;8.88;5.40;;;21.10;99.90;;;;;;5053738;28;20033;-71
2021/09/14 08:14:47;;;;;;;8.82;4.97;;;21.20;99.90;;;;;;5053505;28;20147;-71
2021/09/14 08:17:15;;;;;;;11.23;5.28;;;21.30;99.90;;;;;;5049491;28;20147;-70
2021/09/14 08:19:42;;;;;;;8.65;5.53;;;21.40;99.90;;;;;;5051188;28;20068;-70
2021/09/14 08:22:11;;;;;;;10.10;6.03;;;21.70;99.90;;;;;;5053105;28;20045;-70
2021/09/14 08:24:38;;;;;;;10.85;6.25;;;21.80;99.90;;;;;;5053097;28;20021;-71
2021/09/14 08:27:04;;;;;;;11.48;5.55;;;22.00;99.90;;;;;;5053035;28;20063;-71
2021/09/14 08:29:30;;;;;;;7.00;4.97;;;22.10;99.90;;;;;;5051685;28;20028;-70
2021/09/14 08:31:57;;;;;;;8.30;5.22;;;22.20;99.90;;;;;;5053586;28;20033;-70
2021/09/14 08:34:23;;;;;;;9.70;5.32;;;22.30;99.90;;;;;;5033364;28;20112;-70
2021/09/14 08:36:49;;;;;;;16.08;5.72;;;22.40;99.90;;;;;;5041681;28;20116;-70
2021/09/14 08:39:15;;;;;;;8.77;5.93;;;22.40;99.90;;;;;;5052713;28;20112;-71
2021/09/14 08:41:43;;;;;;;16.30;5.57;;;22.50;99.90;;;;;;5051904;28;20087;-70
2021/09/14 08:44:09;;;;;;;8.82;5.32;;;22.60;99.90;;;;;;5051283;28;20534;-71
2021/09/14 08:46:35;;;;;;;7.45;4.13;;;22.60;99.90;;;;;;5051577;28;20112;-70
2021/09/14 08:49:01;;;;;;;7.13;4.80;;;22.70;99.90;;;;;;5042353;28;20087;-70
2021/09/14 08:51:27;;;;;;;7.82;4.25;;;22.80;99.40;;;;;;5050932;28;20383;-70
2021/09/14 08:53:53;;;;;;;4.25;3.83;;;23.00;98.60;;;;;;5051987;28;20093;-71
2021/09/14 08:56:18;;;;;;;7.35;4.32;;;23.10;98.10;;;;;;5051037;28;20029;-70
2021/09/14 08:58:55;;;;;;;4.63;3.85;;;23.30;97.60;;;;;;5051772;28;20032;-70
2021/09/14 09:01:21;;;;;;;4.50;4.10;;;23.50;97.00;;;;;;5052355;28;20382;-71
2021/09/14 09:03:56;;;;;;;4.28;3.88;;;23.60;96.20;;;;;;5051650;28;20389;-71
2021/09/14 09:06:31;;;;;;;5.80;4.60;;;23.80;95.70;;;;;;5052384;28;20033;-71
2021/09/14 09:09:10;;;;;;;8.30;4.30;;;24.00;95.00;;;;;;5050981;28;20470;-71
2021/09/14 09:11:36;;;;;;;6.90;4.32;;;24.10;94.60;;;;;;5051803;28;20395;-70
2021/09/14 09:14:04;;;;;;;8.35;4.70;;;24.20;94.10;;;;;;5051855;28;20041;-71
2021/09/14 09:16:30;;;;;;;5.03;4.30;;;24.30;93.30;;;;;;5051420;28;20106;-70
2021/09/14 09:19:01;;;;;;;6.50;4.07;;;24.40;92.90;;;;;;5051966;28;20080;-71
2021/09/14 09:21:38;;;;;;;7.15;4.70;;;24.50;92.30;;;;;;5051341;28;20029;-71
2021/09/14 09:24:11;;;;;;;8.40;4.65;;;24.60;92.30;;;;;;5052091;28;20050;-70
2021/09/14 09:26:42;;;;;;;6.00;4.47;;;24.70;92.00;;;;;;5051108;28;20044;-70
2021/09/14 09:29:10;;;;;;;5.90;4.45;;;24.80;92.00;;;;;;5051564;28;20029;-71
2021/09/14 09:31:42;;;;;;;6.47;4.60;;;24.90;91.60;;;;;;5050809;28;20033;-71
2021/09/14 09:34:09;;;;;;;7.85;4.38;;;25.10;91.00;;;;;;5052459;28;20033;-71
2021/09/14 09:36:40;;;;;;;7.70;4.20;;;25.30;90.50;;;;;;5050575;28;20556;-70
2021/09/14 09:39:16;;;;;;;9.20;4.72;;;25.40;90.30;;;;;;5051060;28;20112;-71
2021/09/14 09:41:53;;;;;;;9.55;4.15;;;25.60;90.00;;;;;;5048504;28;20222;-71
2021/09/14 09:44:19;;;;;;;8.73;4.68;;;25.80;89.10;;;;;;5051862;28;20037;-71
2021/09/14 09:46:53;;;;;;;7.53;4.10;;;25.90;86.10;;;;;;5050689;28;20029;-71
2021/09/14 09:49:21;;;;;;;6.63;4.10;;;26.00;86.00;;;;;;5051803;28;20475;-71
2021/09/14 09:51:47;;;;;;;5.65;3.70;;;26.20;85.40;;;;;;5051097;28;20036;-71
2021/09/14 09:54:14;;;;;;;4.25;3.85;;;26.30;85.20;;;;;;5051657;28;20112;-72
2021/09/14 09:56:40;;;;;;;3.75;3.45;;;26.50;83.80;;;;;;5050851;28;20505;-71
2021/09/14 09:59:06;;;;;;;6.15;4.47;;;26.60;82.40;;;;;;5051782;28;20025;-71
2021/09/14 10:01:34;;;;;;;4.00;3.60;;;26.80;81.20;;;;;;5050988;28;20029;-70
2021/09/14 10:04:17;;;;;;;5.05;4.13;;;27.00;80.80;;;;;;5051469;28;20025;-81
2021/09/14 10:06:51;;;;;;;7.22;3.85;;;27.10;80.10;;;;;;5050860;28;20128;-67
2021/09/14 10:09:17;;;;;;;6.03;3.95;;;27.10;79.80;;;;;;5051238;28;20033;-67
2021/09/14 10:11:53;;;;;;;10.40;4.07;;;27.10;79.70;;;;;;5050654;28;20360;-74
2021/09/14 10:14:19;;;;;;;9.93;4.50;;;27.10;80.20;;;;;;5051468;28;20084;-67
2021/09/14 10:16:45;;;;;;;4.82;4.32;;;27.20;80.00;;;;;;5050557;28;20470;-67
2021/09/14 10:19:31;;;;;;;6.07;4.40;;;27.20;79.80;;;;;;5052108;28;20036;-67
2021/09/14 10:22:08;;;;;;;7.55;3.67;;;27.30;79.50;;;;;;5054598;28;20029;-69
2021/09/14 10:24:35;;;;;;;5.35;4.00;;;27.40;77.50;;;;;;5056074;28;20028;-69
2021/09/14 10:27:06;;;;;;;4.25;3.85;;;27.50;76.70;;;;;;5055606;28;20025;-69
2021/09/14 10:29:33;;;;;;;4.28;3.88;;;27.50;76.70;;;;;;5055568;28;20429;-69
2021/09/14 10:32:24;;;;;;;4.43;4.07;;;27.60;76.80;;;;;;5055089;28;20112;-68
2021/09/14 10:34:55;;;;;;;4.05;3.65;;;27.70;75.70;;;;;;5053600;28;20044;-77
2021/09/14 10:37:28;;;;;;;4.72;3.53;;;27.80;75.20;;;;;;5062875;28;20052;-76
2021/09/14 10:40:04;;;;;;;5.45;4.10;;;28.00;74.70;;;;;;5055768;28;20028;-76
2021/09/14 10:42:36;;;;;;;4.95;3.95;;;28.10;73.90;;;;;;5054573;28;20106;-77
2021/09/14 10:45:07;;;;;;;4.47;4.07;;;28.20;74.10;;;;;;5053293;28;20029;-77
2021/09/14 10:47:39;;;;;;;7.55;4.53;;;28.30;73.50;;;;;;5049286;28;20037;-74
2021/09/14 10:50:05;;;;;;;4.22;3.83;;;28.40;72.90;;;;;;5062637;28;20467;-74
2021/09/14 10:52:40;;;;;;;4.95;4.10;;;28.50;72.50;;;;;;5054596;28;20029;-73
2021/09/14 10:55:12;;;;;;;4.85;4.35;;;28.60;72.30;;;;;;5058487;28;20112;-73
2021/09/14 10:57:41;;;;;;;7.20;4.50;;;28.70;71.30;;;;;;5054432;28;20033;-74
2021/09/14 11:00:10;;;;;;;4.45;4.05;;;28.80;71.30;;;;;;5054845;28;20493;-72
2021/09/14 11:02:38;;;;;;;8.13;4.18;;;28.80;71.70;;;;;;5058196;28;20041;-71
2021/09/14 11:05:05;;;;;;;5.30;4.40;;;28.90;70.60;;;;;;5054100;28;20070;-74
2021/09/14 11:07:30;;;;;;;7.57;4.00;;;28.90;70.40;;;;;;5054540;28;20025;-72
2021/09/14 11:09:59;;;;;;;6.32;4.30;;;28.90;70.30;;;;;;5053591;28;20025;-72
2021/09/14 11:12:27;;;;;;;8.27;4.00;;;28.90;70.60;;;;;;5054813;28;20036;-69
2021/09/14 11:14:53;;;;;;;4.47;4.07;;;29.00;70.70;;;;;;5053500;28;20021;-67
2021/09/14 11:17:31;;;;;;;9.18;4.05;;;29.10;70.40;;;;;;5054105;28;20410;-66
2021/09/14 11:20:07;;;;;;;5.05;4.07;;;29.10;70.40;;;;;;5053603;28;20064;-66
2021/09/14 11:22:36;;;;;;;5.82;4.20;;;29.30;69.60;;;;;;5054118;28;20033;-66
2021/09/14 11:25:03;;;;;;;6.10;4.07;;;29.40;69.20;;;;;;5054091;28;20371;-66
2021/09/14 11:27:28;;;;;;;5.80;4.05;;;29.60;69.10;;;;;;5054359;28;20043;-66
2021/09/14 11:29:55;;;;;;;9.27;4.45;;;29.70;68.40;;;;;;5053380;28;20032;-66
2021/09/14 11:32:21;;;;;;;4.97;4.13;;;29.80;67.90;;;;;;5052692;28;20033;-66
2021/09/14 11:34:49;;;;;;;5.00;4.20;;;29.80;68.00;;;;;;5053052;28;20033;-66
2021/09/14 11:37:25;;;;;;;7.07;4.13;;;29.80;67.60;;;;;;5054035;28;20024;-66
2021/09/14 11:39:51;;;;;;;7.43;3.97;;;29.80;68.00;;;;;;5044137;28;20442;-67
2021/09/14 11:42:16;;;;;;;9.80;3.97;;;30.20;67.30;;;;;;5054554;28;20169;-67
2021/09/14 11:44:43;;;;;;;7.93;3.95;;;30.40;67.00;;;;;;5053642;28;20447;-66
2021/09/14 11:47:09;;;;;;;6.75;4.22;;;30.60;66.80;;;;;;5053755;28;20033;-66
2021/09/14 11:49:35;;;;;;;4.78;4.22;;;30.70;66.60;;;;;;5053749;28;20087;-67
2021/09/14 11:52:03;;;;;;;4.97;4.20;;;30.80;65.70;;;;;;5052271;28;20861;-67
2021/09/14 11:54:36;;;;;;;6.00;3.97;;;30.70;65.00;;;;;;5053864;28;20438;-66
2021/09/14 11:57:03;;;;;;;4.63;3.83;;;30.70;66.20;;;;;;5052034;28;20147;-66
2021/09/14 11:59:41;;;;;;;6.03;4.05;;;30.50;65.70;;;;;;5053575;28;20021;-67
2021/09/14 12:02:07;;;;;;;7.03;4.03;;;30.30;66.40;;;;;;5053190;28;20033;-66
2021/09/14 12:04:32;;;;;;;5.55;4.20;;;30.10;66.00;;;;;;5053306;28;20374;-66
2021/09/14 12:07:01;;;;;;;5.97;3.97;;;29.80;66.60;;;;;;5052096;28;20052;-66
2021/09/14 12:09:30;;;;;;;6.05;4.05;;;29.60;67.50;;;;;;5064282;28;20415;-66
2021/09/14 12:12:09;;;;;;;8.18;4.38;;;29.50;67.90;;;;;;5054191;28;20372;-66
2021/09/14 12:14:35;;;;;;;6.90;5.22;;;29.50;67.70;;;;;;5053276;28;20068;-67
2021/09/14 12:17:04;;;;;;;5.65;5.10;;;29.40;68.30;;;;;;5053170;28;20163;-66
2021/09/14 12:19:32;;;;;;;10.18;5.75;;;29.10;69.10;;;;;;5053097;28;20114;-66
2021/09/14 12:21:57;;;;;;;9.60;5.60;;;28.70;69.20;;;;;;5052173;28;20056;-66
2021/09/14 12:24:23;;;;;;;7.50;5.03;;;28.40;70.70;;;;;;5052589;28;20470;-66
2021/09/14 12:26:55;;;;;;;4.88;4.32;;;28.10;71.60;;;;;;5051788;28;20025;-66
2021/09/14 12:29:22;;;;;;;6.30;4.25;;;27.90;72.30;;;;;;5052669;28;20347;-65
2021/09/14 12:31:48;;;;;;;8.40;4.97;;;27.80;72.60;;;;;;5050963;28;20037;-65
2021/09/14 12:34:16;;;;;;;7.03;4.78;;;27.80;72.40;;;;;;5052423;28;20029;-66
2021/09/14 12:36:46;;;;;;;8.05;5.35;;;27.80;72.10;;;;;;5048901;28;20033;-66
2021/09/14 12:39:12;;;;;;;7.70;4.78;;;27.60;71.70;;;;;;5046494;28;20021;-66
2021/09/14 12:41:38;;;;;;;6.18;5.10;;;27.60;72.50;;;;;;5050578;28;20448;-66
2021/09/14 12:44:04;;;;;;;7.97;4.50;;;27.60;72.20;;;;;;5051558;28;20108;-66
2021/09/14 12:46:30;;;;;;;10.93;5.13;;;27.60;72.70;;;;;;5051412;28;20136;-66
2021/09/14 12:48:56;;;;;;;8.13;4.95;;;27.80;71.10;;;;;;5053628;28;20029;-66
2021/09/14 12:51:21;;;;;;;4.95;4.45;;;28.10;70.40;;;;;;5056595;28;20251;-68
2021/09/14 12:53:47;;;;;;;7.47;4.80;;;28.50;69.90;;;;;;5050950;28;20067;-66
2021/09/14 12:56:14;;;;;;;5.75;4.90;;;28.90;68.90;;;;;;5051734;28;20032;-66
2021/09/14 12:58:39;;;;;;;5.10;4.60;;;29.10;68.10;;;;;;5051211;28;20013;-66
2021/09/14 13:01:05;;;;;;;7.35;4.70;;;29.10;68.30;;;;;;5050993;28;20115;-66
2021/09/14 13:03:31;;;;;;;7.88;4.93;;;29.00;67.60;;;;;;5050518;28;20035;-66
2021/09/14 13:05:56;;;;;;;8.75;5.45;;;28.90;68.10;;;;;;5050642;28;20544;-66
2021/09/14 13:08:22;;;;;;;7.13;4.72;;;28.80;68.40;;;;;;5050603;28;20069;-66
2021/09/14 13:10:48;;;;;;;5.38;3.63;;;28.80;68.60;;;;;;5050505;28;20033;-67
2021/09/14 13:16:10;;;;;;;5.68;5.05;;;29.70;67.60;;;;;;5048068;28;20129;-67
2021/09/14 13:18:37;;;;;;;4.93;4.35;;;30.40;65.10;;;;;;5044793;28;20051;-66
2021/09/14 13:21:04;;;;;;;6.53;4.82;;;30.40;65.20;;;;;;5048395;28;20144;-66
2021/09/14 13:23:30;;;;;;;8.55;4.80;;;30.80;65.00;;;;;;5051039;28;20083;-66
2021/09/14 13:25:55;;;;;;;6.85;4.80;;;30.80;63.90;;;;;;5049667;28;20112;-67
2021/09/14 13:28:21;;;;;;;5.78;4.50;;;30.90;64.50;;;;;;5051452;28;20137;-66
2021/09/14 13:30:47;;;;;;;6.47;4.15;;;31.00;64.20;;;;;;5050163;28;20033;-66
2021/09/14 13:33:12;;;;;;;8.05;4.85;;;31.20;64.00;;;;;;5050454;28;20554;-66
2021/09/14 13:35:39;;;;;;;6.07;4.55;;;31.40;62.80;;;;;;5051038;28;20021;-66
2021/09/14 13:38:05;;;;;;;6.05;4.13;;;31.40;62.50;;;;;;5050415;28;20017;-66
2021/09/14 13:40:31;;;;;;;6.25;4.65;;;31.40;62.60;;;;;;5050435;28;21485;-66
2021/09/14 13:42:57;;;;;;;7.65;4.85;;;31.40;62.20;;;;;;5046881;28;20045;-66
2021/09/14 13:48:08;;;;;;;5.95;5.35;;;31.30;62.50;;;;;;5049887;28;20035;-66